createdAt,value
2023-04-03T00:00:42.276Z,93.11
2023-04-03T00:01:45.506Z,93.06
2023-04-03T00:02:47.426Z,92.56
2023-04-03T00:03:51.039Z,93.00
2023-04-03T00:04:56.962Z,92.71
2023-04-03T00:06:00.373Z,92.49
2023-04-03T00:07:03.143Z,92.41
2023-04-03T00:08:08.575Z,92.43
2023-04-03T00:09:11.348Z,92.63
2023-04-03T00:10:13.502Z,92.78
2023-04-03T00:11:17.068Z,92.49
2023-04-03T00:12:18.900Z,92.67
2023-04-03T00:13:21.685Z,92.30
2023-04-03T00:14:23.550Z,92.25
2023-04-03T00:15:26.455Z,92.25
2023-04-03T00:16:28.345Z,92.35
2023-04-03T00:17:31.181Z,92.21
2023-04-03T00:18:33.040Z,92.45
2023-04-03T00:19:35.879Z,92.67
2023-04-03T00:20:38.156Z,92.48
2023-04-03T00:21:42.516Z,92.10
2023-04-03T00:22:44.340Z,91.95
2023-04-03T00:23:47.236Z,91.83
2023-04-03T00:24:49.047Z,92.15
2023-04-03T00:25:52.179Z,92.09
2023-04-03T00:26:54.446Z,92.42
2023-04-03T00:27:57.211Z,92.51
2023-04-03T00:28:59.066Z,92.21
2023-04-03T00:30:01.897Z,92.37
2023-04-03T00:31:06.123Z,92.20
2023-04-03T00:32:08.885Z,92.03
2023-04-03T00:33:12.314Z,92.20
2023-04-03T00:34:15.035Z,92.03
2023-04-03T00:35:17.211Z,91.95
2023-04-03T00:36:20.280Z,91.72
2023-04-03T00:37:23.527Z,91.59
2023-04-03T00:38:26.397Z,91.73
2023-04-03T00:39:28.542Z,91.72
2023-04-03T00:40:36.241Z,91.54
2023-04-03T00:41:38.230Z,92.10
2023-04-03T00:42:44.312Z,92.16
2023-04-03T00:43:46.161Z,91.96
2023-04-03T00:45:28.218Z,91.54
2023-04-03T00:46:31.493Z,91.86
2023-04-03T00:47:34.425Z,91.30
2023-04-03T00:48:39.975Z,91.63
2023-04-03T00:49:42.244Z,91.35
2023-04-03T00:50:45.377Z,91.67
2023-04-03T00:51:47.585Z,91.62
2023-04-03T00:52:51.972Z,91.35
2023-04-03T00:53:58.035Z,91.07
2023-04-03T00:55:03.667Z,91.59
2023-04-03T00:56:08.406Z,91.59
2023-04-03T00:57:11.845Z,92.02
2023-04-03T00:58:15.518Z,91.53
2023-04-03T00:59:23.098Z,91.48
2023-04-03T01:00:27.110Z,91.58
2023-04-03T01:01:30.673Z,91.80
2023-04-03T01:02:35.600Z,91.68
2023-04-03T01:03:39.009Z,91.72
2023-04-03T01:04:43.629Z,91.78
2023-04-03T01:05:46.569Z,92.17
2023-04-03T01:06:48.379Z,92.13
2023-04-03T01:07:53.446Z,91.90
2023-04-03T01:08:56.258Z,91.81
2023-04-03T01:10:01.423Z,92.08
2023-04-03T01:11:03.600Z,92.01
2023-04-03T01:12:17.816Z,92.08
2023-04-03T01:13:25.347Z,91.84
2023-04-03T01:14:27.230Z,91.78
2023-04-03T01:15:33.804Z,92.25
2023-04-03T01:16:35.833Z,92.25
2023-04-03T01:17:40.639Z,92.02
2023-04-03T01:18:43.769Z,92.09
2023-04-03T01:19:56.021Z,91.78
2023-04-03T01:21:22.642Z,91.76
2023-04-03T01:22:27.456Z,91.80
2023-04-03T01:23:39.519Z,91.82
2023-04-03T01:24:42.314Z,92.09
2023-04-03T01:25:49.052Z,92.17
2023-04-03T01:26:52.213Z,91.83
2023-04-03T01:27:54.412Z,92.01
2023-04-03T01:28:57.599Z,91.83
2023-04-03T01:29:59.623Z,91.66
2023-04-03T01:31:05.947Z,91.74
2023-04-03T01:32:12.184Z,91.92
2023-04-03T01:33:14.024Z,91.78
2023-04-03T01:34:17.073Z,91.55
2023-04-03T01:35:19.570Z,91.42
2023-04-03T01:36:25.550Z,91.41
2023-04-03T01:37:27.468Z,91.51
2023-04-03T01:38:30.769Z,91.86
2023-04-03T01:39:32.643Z,91.45
2023-04-03T01:40:37.122Z,91.53
2023-04-03T01:41:39.281Z,91.66
2023-04-03T01:42:49.334Z,91.36
2023-04-03T01:43:51.318Z,91.81
2023-04-03T01:44:54.181Z,91.69
2023-04-03T01:45:56.079Z,91.64
2023-04-03T01:46:59.033Z,91.00
2023-04-03T01:48:06.002Z,91.28
2023-04-03T01:49:08.807Z,90.97
2023-04-03T01:50:10.841Z,91.19
2023-04-03T01:51:14.058Z,91.22
2023-04-03T01:52:16.296Z,91.29
2023-04-03T01:53:19.081Z,91.58
2023-04-03T01:54:21.331Z,91.44
2023-04-03T01:55:24.234Z,91.16
2023-04-03T01:56:26.138Z,91.19
2023-04-03T01:57:29.220Z,91.28
2023-04-03T01:58:31.499Z,91.51
2023-04-03T01:59:34.313Z,91.81
2023-04-03T02:00:37.648Z,91.24
2023-04-03T02:01:41.563Z,91.12
2023-04-03T02:02:45.026Z,91.01
2023-04-03T02:03:49.447Z,91.69
2023-04-03T02:04:51.256Z,91.26
2023-04-03T02:05:54.945Z,91.39
2023-04-03T02:07:01.207Z,91.33
2023-04-03T02:08:04.045Z,91.25
2023-04-03T02:09:06.095Z,91.13
2023-04-03T02:10:09.536Z,91.33
2023-04-03T02:11:11.362Z,91.56
2023-04-03T02:12:14.130Z,91.46
2023-04-03T02:13:16.382Z,90.93
2023-04-03T02:14:19.170Z,91.28
2023-04-03T02:15:21.665Z,91.10
2023-04-03T02:16:24.584Z,91.05
2023-04-03T02:17:26.421Z,91.29
2023-04-03T02:18:31.410Z,91.19
2023-04-03T02:19:35.584Z,91.36
2023-04-03T02:20:39.173Z,91.16
2023-04-03T02:21:41.280Z,91.51
2023-04-03T02:22:44.433Z,91.67
2023-04-03T02:23:46.355Z,91.20
2023-04-03T02:24:49.146Z,91.47
2023-04-03T02:25:51.129Z,91.31
2023-04-03T02:26:53.883Z,90.88
2023-04-03T02:27:55.744Z,91.12
2023-04-03T02:29:00.096Z,91.02
2023-04-03T02:30:01.929Z,90.50
2023-04-03T02:31:05.743Z,90.88
2023-04-03T02:32:08.096Z,90.30
2023-04-03T02:33:12.001Z,90.49
2023-04-03T02:34:14.884Z,90.32
2023-04-03T02:35:22.129Z,90.44
2023-04-03T02:36:24.496Z,90.50
2023-04-03T02:37:32.306Z,90.01
2023-04-03T02:38:34.852Z,90.47
2023-04-03T02:39:37.742Z,90.00
2023-04-03T02:40:39.792Z,90.42
2023-04-03T02:41:42.796Z,90.19
2023-04-03T02:42:49.686Z,90.26
2023-04-03T02:43:52.480Z,90.10
2023-04-03T02:44:56.248Z,90.16
2023-04-03T02:45:59.474Z,89.98
2023-04-03T02:47:01.323Z,89.91
2023-04-03T02:48:04.814Z,89.81
2023-04-03T02:49:06.787Z,89.93
2023-04-03T02:50:10.577Z,89.34
2023-04-03T02:51:13.760Z,89.31
2023-04-03T02:52:16.590Z,89.58
2023-04-03T02:53:18.753Z,89.67
2023-04-03T02:54:28.663Z,89.49
2023-04-03T02:55:32.492Z,89.79
2023-04-03T02:56:35.401Z,89.22
2023-04-03T02:57:37.330Z,89.47
2023-04-03T02:58:40.306Z,89.35
2023-04-03T02:59:43.610Z,89.16
2023-04-03T03:00:47.682Z,89.59
2023-04-03T03:01:49.530Z,89.18
2023-04-03T03:02:52.350Z,89.42
2023-04-03T03:03:54.278Z,89.27
2023-04-03T03:04:57.214Z,88.87
2023-04-03T03:06:03.673Z,89.01
2023-04-03T03:07:08.167Z,89.35
2023-04-03T03:08:09.932Z,89.49
2023-04-03T03:09:14.005Z,89.47
2023-04-03T03:10:18.149Z,89.38
2023-04-03T03:11:23.151Z,89.04
2023-04-03T03:12:25.638Z,88.93
2023-04-03T03:13:29.648Z,89.23
2023-04-03T03:14:32.313Z,89.24
2023-04-03T03:15:35.123Z,89.24
2023-04-03T03:16:37.904Z,89.61
2023-04-03T03:17:40.765Z,89.39
2023-04-03T03:18:42.552Z,89.63
2023-04-03T03:19:46.661Z,89.74
2023-04-03T03:20:52.037Z,89.76
2023-04-03T03:21:56.063Z,90.06
2023-04-03T03:22:59.549Z,89.80
2023-04-03T03:24:02.311Z,90.17
2023-04-03T03:25:04.891Z,89.81
2023-04-03T03:26:09.406Z,89.72
2023-04-03T03:27:11.387Z,90.34
2023-04-03T03:28:14.124Z,90.08
2023-04-03T03:29:17.700Z,89.94
2023-04-03T03:30:22.402Z,89.88
2023-04-03T03:31:24.246Z,90.31
2023-04-03T03:32:27.280Z,89.88
2023-04-03T03:33:29.503Z,90.21
2023-04-03T03:34:32.404Z,90.31
2023-04-03T03:35:35.173Z,90.56
2023-04-03T03:36:39.190Z,90.59
2023-04-03T03:37:41.118Z,90.25
2023-04-03T03:38:45.614Z,90.51
2023-04-03T03:39:47.454Z,90.60
2023-04-03T03:40:51.279Z,90.33
2023-04-03T03:41:56.545Z,90.44
2023-04-03T03:42:59.630Z,90.55
2023-04-03T03:44:01.487Z,90.50
2023-04-03T03:45:09.023Z,90.52
2023-04-03T03:46:10.933Z,90.63
2023-04-03T03:47:13.737Z,90.50
2023-04-03T03:48:16.912Z,90.43
2023-04-03T03:49:19.706Z,90.75
2023-04-03T03:50:21.632Z,90.83
2023-04-03T03:51:26.764Z,90.83
2023-04-03T03:52:29.107Z,90.91
2023-04-03T03:53:32.957Z,90.80
2023-04-03T03:54:42.551Z,90.58
2023-04-03T03:55:44.637Z,90.78
2023-04-03T03:56:47.475Z,90.75
2023-04-03T03:57:50.848Z,90.80
2023-04-03T03:58:54.637Z,90.52
2023-04-03T03:59:57.039Z,90.61
2023-04-03T04:01:02.773Z,90.66
2023-04-03T04:02:04.703Z,90.80
2023-04-03T04:03:07.656Z,91.19
2023-04-03T04:04:09.891Z,91.10
2023-04-03T04:05:12.913Z,90.83
2023-04-03T04:06:14.753Z,90.92
2023-04-03T04:07:17.695Z,90.98
2023-04-03T04:08:19.569Z,90.96
2023-04-03T04:09:22.781Z,90.84
2023-04-03T04:10:26.997Z,90.78
2023-04-03T04:11:30.247Z,90.79
2023-04-03T04:12:32.275Z,90.80
2023-04-03T04:13:35.696Z,90.87
2023-04-03T04:14:37.824Z,90.80
2023-04-03T04:15:42.231Z,90.58
2023-04-03T04:16:44.232Z,90.52
2023-04-03T04:17:52.384Z,90.29
2023-04-03T04:18:54.259Z,90.59
2023-04-03T04:19:58.950Z,90.28
2023-04-03T04:21:01.109Z,90.31
2023-04-03T04:22:04.337Z,90.29
2023-04-03T04:23:08.267Z,90.46
2023-04-03T04:24:12.615Z,90.34
2023-04-03T04:25:14.993Z,90.13
2023-04-03T04:26:21.241Z,90.57
2023-04-03T04:27:23.435Z,90.26
2023-04-03T04:28:26.319Z,90.40
2023-04-03T04:29:29.992Z,90.19
2023-04-03T04:30:32.970Z,90.21
2023-04-03T04:31:35.283Z,90.45
2023-04-03T04:32:38.397Z,90.17
2023-04-03T04:33:41.159Z,90.20
2023-04-03T04:34:46.471Z,90.31
2023-04-03T04:35:51.061Z,90.28
2023-04-03T04:36:56.217Z,90.12
2023-04-03T04:37:58.243Z,90.11
2023-04-03T04:39:01.201Z,89.99
2023-04-03T04:40:04.104Z,89.96
2023-04-03T04:41:09.741Z,89.88
2023-04-03T04:42:17.457Z,89.92
2023-04-03T04:43:24.973Z,89.79
2023-04-03T04:44:30.272Z,89.95
2023-04-03T04:45:32.575Z,89.94
2023-04-03T04:46:35.934Z,89.97
2023-04-03T04:47:37.987Z,89.92
2023-04-03T04:48:41.872Z,89.91
2023-04-03T04:49:44.428Z,89.49
2023-04-03T04:50:47.968Z,89.68
2023-04-03T04:51:52.309Z,89.33
2023-04-03T04:53:00.500Z,89.34
2023-04-03T04:54:02.333Z,89.20
2023-04-03T04:55:06.703Z,89.01
2023-04-03T04:56:08.839Z,88.74
2023-04-03T04:57:13.535Z,88.90
2023-04-03T04:58:16.799Z,88.62
2023-04-03T04:59:21.859Z,88.30
2023-04-03T05:00:24.640Z,88.01
2023-04-03T05:01:27.484Z,88.24
2023-04-03T05:02:47.960Z,88.23
2023-04-03T05:03:50.222Z,88.02
2023-04-03T05:04:55.547Z,88.13
2023-04-03T05:06:03.030Z,88.55
2023-04-03T05:07:06.732Z,88.34
2023-04-03T05:08:12.815Z,88.17
2023-04-03T05:09:17.082Z,88.56
2023-04-03T05:10:21.537Z,88.50
2023-04-03T05:11:25.161Z,88.52
2023-04-03T05:12:28.730Z,88.55
2023-04-03T05:13:36.047Z,88.35
2023-04-03T05:14:39.058Z,88.42
2023-04-03T05:15:43.552Z,88.34
2023-04-03T05:16:46.479Z,88.42
2023-04-03T05:17:48.522Z,88.13
2023-04-03T05:18:52.284Z,88.42
2023-04-03T05:19:58.316Z,88.55
2023-04-03T05:21:03.401Z,88.51
2023-04-03T05:22:06.125Z,88.62
2023-04-03T05:23:09.136Z,88.35
2023-04-03T05:24:11.490Z,88.28
2023-04-03T05:25:17.705Z,88.53
2023-04-03T05:26:20.156Z,88.54
2023-04-03T05:27:25.104Z,88.45
2023-04-03T05:28:29.619Z,88.34
2023-04-03T05:29:33.951Z,88.35
2023-04-03T05:30:39.167Z,88.02
2023-04-03T05:31:41.977Z,87.67
2023-04-03T05:32:46.431Z,87.50
2023-04-03T05:33:54.746Z,87.43
2023-04-03T05:35:01.170Z,86.91
2023-04-03T05:36:05.805Z,87.11
2023-04-03T05:37:16.019Z,87.25
2023-04-03T05:38:19.206Z,87.41
2023-04-03T05:39:22.020Z,87.17
2023-04-03T05:40:25.388Z,87.14
2023-04-03T05:41:30.774Z,87.34
2023-04-03T05:42:33.712Z,87.32
2023-04-03T05:43:39.922Z,87.16
2023-04-03T05:44:47.815Z,86.77
2023-04-03T05:45:49.914Z,87.02
2023-04-03T05:46:52.875Z,87.06
2023-04-03T05:47:55.550Z,86.87
2023-04-03T05:48:58.395Z,86.83
2023-04-03T05:50:06.686Z,86.92
2023-04-03T05:51:14.980Z,87.13
2023-04-03T05:52:22.786Z,87.06
2023-04-03T05:53:28.471Z,85.68
2023-04-03T05:54:33.554Z,86.11
2023-04-03T05:55:46.791Z,84.97
2023-04-03T05:56:52.769Z,85.50
2023-04-03T05:57:57.469Z,85.35
2023-04-03T05:59:00.443Z,85.47
2023-04-03T06:00:06.617Z,85.01
2023-04-03T06:01:17.149Z,85.54
2023-04-03T06:02:22.695Z,85.42
2023-04-03T06:03:26.504Z,85.75
2023-04-03T06:04:29.501Z,85.75
2023-04-03T06:05:31.470Z,85.42
2023-04-03T06:06:46.791Z,85.25
2023-04-03T06:07:50.627Z,84.91
2023-04-03T06:08:54.137Z,84.37
2023-04-03T06:09:58.200Z,84.82
2023-04-03T06:11:00.975Z,84.47
2023-04-03T06:12:03.993Z,83.92
2023-04-03T06:13:06.995Z,83.80
2023-04-03T06:14:10.148Z,83.69
2023-04-03T06:15:16.507Z,83.58
2023-04-03T06:16:18.824Z,83.59
2023-04-03T06:17:21.638Z,83.74
2023-04-03T06:18:24.065Z,83.58
2023-04-03T06:19:27.849Z,83.64
2023-04-03T06:20:33.046Z,83.21
2023-04-03T06:21:36.674Z,82.78
2023-04-03T06:22:40.265Z,82.49
2023-04-03T06:23:42.891Z,82.44
2023-04-03T06:24:45.674Z,82.14
2023-04-03T06:25:48.626Z,82.79
2023-04-03T06:26:52.279Z,82.22
2023-04-03T06:27:56.379Z,82.02
2023-04-03T06:28:58.315Z,82.20
2023-04-03T06:30:01.068Z,82.42
2023-04-03T06:31:04.239Z,81.31
2023-04-03T06:32:08.105Z,81.45
2023-04-03T06:33:11.721Z,82.20
2023-04-03T06:34:13.763Z,81.96
2023-04-03T06:35:17.919Z,80.91
2023-04-03T06:36:21.569Z,81.28
2023-04-03T06:37:26.914Z,80.53
2023-04-03T06:38:29.721Z,80.74
2023-04-03T06:39:31.602Z,81.24
2023-04-03T06:40:34.656Z,81.00
2023-04-03T06:41:37.271Z,81.26
2023-04-03T06:42:40.150Z,81.51
2023-04-03T06:43:47.124Z,81.09
2023-04-03T06:44:49.167Z,80.81
2023-04-03T06:45:52.289Z,80.90
2023-04-03T06:46:56.531Z,80.72
2023-04-03T06:47:59.828Z,80.71
2023-04-03T06:49:02.932Z,80.58
2023-04-03T06:50:07.984Z,80.21
2023-04-03T06:51:18.348Z,80.07
2023-04-03T06:52:21.675Z,79.93
2023-04-03T06:53:24.745Z,79.45
2023-04-03T06:54:31.832Z,79.32
2023-04-03T06:55:34.728Z,79.93
2023-04-03T06:56:36.700Z,80.36
2023-04-03T06:57:39.960Z,80.39
2023-04-03T06:58:42.536Z,80.54
2023-04-03T06:59:45.573Z,79.91
2023-04-03T07:00:48.296Z,80.15
2023-04-03T07:01:51.242Z,80.00
2023-04-03T07:02:54.580Z,80.26
2023-04-03T07:03:58.382Z,79.06
2023-04-03T07:05:00.336Z,78.86
2023-04-03T07:06:03.226Z,79.58
2023-04-03T07:07:09.339Z,79.96
2023-04-03T07:08:12.263Z,79.86
2023-04-03T07:09:15.078Z,79.92
2023-04-03T07:10:19.302Z,79.53
2023-04-03T07:11:22.681Z,79.46
2023-04-03T07:12:25.590Z,80.05
2023-04-03T07:13:27.716Z,80.12
2023-04-03T07:14:30.538Z,79.74
2023-04-03T07:15:32.384Z,79.75
2023-04-03T07:16:35.897Z,80.08
2023-04-03T07:17:38.984Z,79.18
2023-04-03T07:18:42.478Z,78.53
2023-04-03T07:19:45.416Z,78.71
2023-04-03T07:20:47.259Z,79.07
2023-04-03T07:21:53.985Z,78.66
2023-04-03T07:22:57.066Z,78.86
2023-04-03T07:23:59.058Z,78.59
2023-04-03T07:25:01.902Z,78.62
2023-04-03T07:26:04.056Z,78.97
2023-04-03T07:27:09.352Z,78.44
2023-04-03T07:28:11.170Z,78.30
2023-04-03T07:29:14.224Z,78.17
2023-04-03T07:30:16.292Z,78.31
2023-04-03T07:31:19.772Z,78.54
2023-04-03T07:32:23.930Z,78.57
2023-04-03T07:33:25.869Z,78.86
2023-04-03T07:34:30.016Z,77.51
2023-04-03T07:35:32.028Z,77.46
2023-04-03T07:36:34.871Z,77.69
2023-04-03T07:37:37.744Z,77.46
2023-04-03T07:38:41.512Z,76.54
2023-04-03T07:39:45.784Z,77.45
2023-04-03T07:40:49.432Z,77.32
2023-04-03T07:41:52.756Z,77.18
2023-04-03T07:42:57.450Z,77.18
2023-04-03T07:44:00.334Z,76.72
2023-04-03T07:45:02.656Z,76.32
2023-04-03T07:46:07.233Z,76.26
2023-04-03T07:47:09.517Z,75.17
2023-04-03T07:48:14.054Z,75.76
2023-04-03T07:49:15.920Z,76.66
2023-04-03T07:50:23.226Z,75.54
2023-04-03T07:51:30.826Z,76.04
2023-04-03T07:52:32.662Z,76.52
2023-04-03T07:53:35.988Z,76.85
2023-04-03T07:54:41.092Z,76.71
2023-04-03T07:55:44.856Z,74.99
2023-04-03T07:56:47.699Z,74.02
2023-04-03T07:57:49.632Z,74.06
2023-04-03T07:58:56.024Z,73.96
2023-04-03T07:59:58.823Z,74.49
2023-04-03T08:01:01.563Z,73.63
2023-04-03T08:02:05.932Z,74.26
2023-04-03T08:03:12.579Z,74.04
2023-04-03T08:04:16.985Z,74.75
2023-04-03T08:05:19.287Z,74.50
2023-04-03T08:06:32.959Z,74.22
2023-04-03T08:07:43.732Z,75.38
2023-04-03T08:08:45.583Z,75.60
2023-04-03T08:09:50.210Z,75.75
2023-04-03T08:10:56.748Z,74.46
2023-04-03T08:11:59.859Z,75.27
2023-04-03T08:13:02.094Z,74.24
2023-04-03T08:14:06.535Z,73.85
2023-04-03T08:15:09.826Z,73.26
2023-04-03T08:16:14.487Z,73.82
2023-04-03T08:17:17.513Z,73.36
2023-04-03T08:18:22.734Z,74.17
2023-04-03T08:19:26.838Z,73.25
2023-04-03T08:20:30.051Z,73.01
2023-04-03T08:21:34.147Z,74.31
2023-04-03T08:22:36.200Z,73.53
2023-04-03T08:23:39.439Z,72.63
2023-04-03T08:24:56.310Z,72.17
2023-04-03T08:26:01.895Z,72.02
2023-04-03T08:27:05.156Z,69.28
2023-04-03T08:28:07.665Z,69.19
2023-04-03T08:29:10.553Z,68.84
2023-04-03T08:30:15.635Z,69.19
2023-04-03T08:31:21.102Z,68.89
2023-04-03T08:32:24.134Z,66.62
2023-04-03T08:33:26.239Z,69.16
2023-04-03T08:34:29.000Z,69.29
2023-04-03T08:35:31.052Z,67.01
2023-04-03T08:36:39.415Z,67.06
2023-04-03T08:37:42.393Z,68.35
2023-04-03T08:38:44.273Z,68.04
2023-04-03T08:39:48.684Z,69.29
2023-04-03T08:41:02.120Z,68.80
2023-04-03T08:42:08.448Z,68.83
2023-04-03T08:43:28.279Z,67.43
2023-04-03T08:44:44.913Z,67.50
2023-04-03T08:45:52.586Z,67.13
2023-04-03T08:47:05.455Z,66.96
2023-04-03T08:48:14.106Z,65.95
2023-04-03T08:49:24.814Z,64.36
2023-04-03T08:50:32.516Z,66.53
2023-04-03T08:51:34.411Z,65.77
2023-04-03T08:52:41.496Z,66.13
2023-04-03T08:53:46.564Z,66.88
2023-04-03T08:54:54.978Z,66.55
2023-04-03T08:56:00.766Z,65.53
2023-04-03T08:57:06.149Z,66.59
2023-04-03T08:58:13.295Z,66.91
2023-04-03T08:59:24.012Z,67.28
2023-04-03T09:00:29.238Z,66.40
2023-04-03T09:01:36.565Z,66.49
2023-04-03T09:02:44.051Z,66.06
2023-04-03T09:03:46.860Z,66.17
2023-04-03T09:04:49.694Z,67.35
2023-04-03T09:05:57.797Z,67.32
2023-04-03T09:07:04.820Z,67.41
2023-04-03T09:08:15.507Z,68.23
2023-04-03T09:09:31.174Z,65.42
2023-04-03T09:10:35.564Z,65.76
2023-04-03T09:11:48.228Z,66.54
2023-04-03T09:12:59.509Z,64.03
2023-04-03T09:14:06.523Z,63.84
2023-04-03T09:15:20.031Z,63.72
2023-04-03T09:16:36.192Z,63.91
2023-04-03T09:17:44.626Z,63.26
2023-04-03T09:18:49.982Z,62.16
2023-04-03T09:19:59.313Z,62.74
2023-04-03T09:21:08.260Z,62.79
2023-04-03T09:22:16.188Z,63.03
2023-04-03T09:23:26.387Z,63.97
2023-04-03T09:24:29.988Z,65.01
2023-04-03T09:25:35.575Z,63.66
2023-04-03T09:26:44.538Z,64.95
2023-04-03T09:27:47.958Z,63.25
2023-04-03T09:28:51.402Z,62.76
2023-04-03T09:29:56.219Z,61.19
2023-04-03T09:30:59.036Z,62.80
2023-04-03T09:32:03.348Z,63.36
2023-04-03T09:33:08.404Z,62.39
2023-04-03T09:34:18.940Z,61.14
2023-04-03T09:35:32.909Z,60.84
2023-04-03T09:36:46.421Z,61.85
2023-04-03T09:37:50.661Z,62.86
2023-04-03T09:39:07.993Z,62.56
2023-04-03T09:40:30.661Z,60.54
2023-04-03T09:41:34.218Z,62.13
2023-04-03T09:42:46.252Z,62.72
2023-04-03T09:43:54.751Z,60.96
2023-04-03T09:45:00.018Z,61.30
2023-04-03T09:46:21.135Z,59.96
2023-04-03T09:47:26.034Z,60.87
2023-04-03T09:48:29.308Z,59.94
2023-04-03T09:49:32.189Z,60.11
2023-04-03T09:50:36.311Z,59.35
2023-04-03T09:51:39.308Z,59.17
2023-04-03T09:52:42.509Z,60.17
2023-04-03T09:53:46.793Z,59.58
2023-04-03T09:54:51.354Z,58.86
2023-04-03T09:55:53.343Z,58.38
2023-04-03T09:56:57.653Z,58.27
2023-04-03T09:58:02.245Z,59.51
2023-04-03T09:59:14.377Z,60.01
2023-04-03T10:00:23.820Z,58.01
2023-04-03T10:01:33.249Z,55.83
2023-04-03T10:02:40.137Z,57.04
2023-04-03T10:03:47.670Z,57.36
2023-04-03T10:05:02.559Z,57.21
2023-04-03T10:06:24.833Z,57.93
2023-04-03T10:07:30.350Z,57.94
2023-04-03T10:08:34.454Z,57.17
2023-04-03T10:09:38.735Z,57.32
2023-04-03T10:10:46.508Z,57.83
2023-04-03T10:12:06.668Z,57.44
2023-04-03T10:13:20.208Z,56.88
2023-04-03T10:14:26.152Z,57.64
2023-04-03T10:15:32.181Z,58.41
2023-04-03T10:16:40.293Z,59.68
2023-04-03T10:17:52.387Z,56.36
2023-04-03T10:19:03.601Z,56.86
2023-04-03T10:20:13.100Z,56.68
2023-04-03T10:21:31.258Z,56.01
2023-04-03T10:22:41.500Z,54.72
2023-04-03T10:23:47.368Z,56.33
2023-04-03T10:25:01.652Z,57.83
2023-04-03T10:26:13.981Z,56.80
2023-04-03T10:27:21.046Z,57.59
2023-04-03T10:28:26.545Z,58.08
2023-04-03T10:29:41.966Z,54.87
2023-04-03T10:30:51.500Z,56.77
2023-04-03T10:32:03.084Z,57.06
2023-04-03T10:33:18.222Z,56.82
2023-04-03T10:34:24.045Z,55.57
2023-04-03T10:35:34.782Z,54.94
2023-04-03T10:36:44.005Z,54.84
2023-04-03T10:37:56.581Z,56.40
2023-04-03T10:39:04.950Z,56.02
2023-04-03T10:40:27.092Z,55.99
2023-04-03T10:41:37.194Z,55.41
2023-04-03T10:42:46.055Z,55.64
2023-04-03T10:43:56.374Z,55.78
2023-04-03T10:45:05.850Z,54.67
2023-04-03T10:46:11.788Z,54.01
2023-04-03T10:47:18.468Z,53.82
2023-04-03T10:48:32.152Z,52.16
2023-04-03T10:49:57.186Z,53.18
2023-04-03T10:51:13.241Z,52.82
2023-04-03T10:52:20.121Z,52.38
2023-04-03T10:53:29.553Z,52.75
2023-04-03T10:54:36.593Z,53.37
2023-04-03T10:55:42.076Z,52.11
2023-04-03T10:56:57.884Z,53.95
2023-04-03T10:58:08.283Z,53.91
2023-04-03T10:59:23.603Z,54.82
2023-04-03T11:00:32.069Z,54.90
2023-04-03T11:01:38.022Z,53.13
2023-04-03T11:02:44.861Z,53.23
2023-04-03T11:03:49.254Z,54.03
2023-04-03T11:04:55.759Z,53.38
2023-04-03T11:05:58.724Z,52.75
2023-04-03T11:07:04.217Z,53.53
2023-04-03T11:08:19.782Z,52.78
2023-04-03T11:09:26.496Z,52.51
2023-04-03T11:10:34.637Z,52.71
2023-04-03T11:11:43.000Z,52.47
2023-04-03T11:12:50.429Z,53.60
2023-04-03T11:13:56.912Z,52.57
2023-04-03T11:15:00.031Z,53.38
2023-04-03T11:16:01.972Z,52.26
2023-04-03T11:17:14.330Z,53.65
2023-04-03T11:18:19.983Z,53.25
2023-04-03T11:19:25.224Z,54.13
2023-04-03T11:20:34.091Z,54.11
2023-04-03T11:21:41.594Z,53.77
2023-04-03T11:22:48.976Z,53.11
2023-04-03T11:23:53.311Z,51.12
2023-04-03T11:25:04.071Z,52.04
2023-04-03T11:26:13.553Z,49.39
2023-04-03T11:27:23.396Z,49.66
2023-04-03T11:28:28.055Z,49.97
2023-04-03T11:29:35.721Z,49.04
2023-04-03T11:30:44.059Z,48.73
2023-04-03T11:32:03.773Z,49.28
2023-04-03T11:33:31.475Z,49.39
2023-04-03T11:34:39.261Z,50.43
2023-04-03T11:35:44.446Z,51.02
2023-04-03T11:36:50.099Z,51.40
2023-04-03T11:37:54.393Z,51.98
2023-04-03T11:39:00.963Z,51.39
2023-04-03T11:40:05.988Z,51.01
2023-04-03T11:41:10.270Z,52.81
2023-04-03T11:42:16.917Z,50.99
2023-04-03T11:43:26.465Z,50.38
2023-04-03T11:44:39.335Z,49.99
2023-04-03T11:45:52.749Z,50.15
2023-04-03T11:46:58.225Z,49.25
2023-04-03T11:48:12.932Z,48.87
2023-04-03T11:49:59.156Z,45.81
2023-04-03T11:51:42.191Z,47.15
2023-04-03T11:53:28.139Z,47.77
2023-04-03T11:54:49.015Z,48.33
2023-04-03T11:56:03.052Z,49.86
2023-04-03T11:57:34.423Z,49.60
2023-04-03T11:58:37.340Z,51.27
2023-04-03T11:59:42.986Z,52.38
2023-04-03T12:01:11.320Z,51.30
2023-04-03T12:02:51.275Z,47.66
2023-04-03T12:04:08.918Z,49.36
2023-04-03T12:05:27.132Z,48.61
2023-04-03T12:07:20.019Z,47.89
2023-04-03T12:08:26.115Z,48.68
2023-04-03T12:09:36.497Z,48.91
2023-04-03T12:10:39.521Z,49.28
2023-04-03T12:11:41.854Z,50.62
2023-04-03T12:12:44.846Z,50.12
2023-04-03T12:14:05.824Z,51.05
2023-04-03T12:15:48.075Z,48.58
2023-04-03T12:16:52.204Z,46.42
2023-04-03T12:17:56.346Z,47.20
2023-04-03T12:19:03.771Z,48.35
2023-04-03T12:20:54.094Z,46.13
2023-04-03T12:22:12.649Z,46.79
2023-04-03T12:23:30.916Z,46.25
2023-04-03T12:24:34.841Z,46.30
2023-04-03T12:25:51.282Z,45.68
2023-04-03T12:27:05.543Z,45.97
2023-04-03T12:28:08.742Z,45.99
2023-04-03T12:29:16.672Z,47.18
2023-04-03T12:30:23.909Z,47.81
2023-04-03T12:31:42.116Z,49.35
2023-04-03T12:33:11.812Z,48.45
2023-04-03T12:34:29.448Z,48.88
2023-04-03T12:35:33.369Z,49.15
2023-04-03T12:36:44.892Z,48.76
2023-04-03T12:38:14.521Z,47.62
2023-04-03T12:39:38.885Z,46.20
2023-04-03T12:40:44.356Z,46.88
2023-04-03T12:41:53.668Z,46.13
2023-04-03T12:43:15.922Z,44.48
2023-04-03T12:44:30.392Z,45.23
2023-04-03T12:45:41.555Z,46.56
2023-04-03T12:46:48.145Z,46.73
2023-04-03T12:47:54.782Z,47.00
2023-04-03T12:48:59.615Z,47.19
2023-04-03T12:50:02.657Z,47.21
2023-04-03T12:51:07.517Z,48.11
2023-04-03T12:52:20.647Z,47.79
2023-04-03T12:53:25.242Z,48.64
2023-04-03T12:54:30.676Z,49.34
2023-04-03T12:55:33.658Z,48.04
2023-04-03T12:56:35.693Z,46.31
2023-04-03T12:57:38.987Z,45.77
2023-04-03T12:58:41.003Z,46.30
2023-04-03T12:59:44.703Z,45.14
2023-04-03T13:00:47.587Z,45.05
2023-04-03T13:01:58.877Z,45.01
2023-04-03T13:03:01.346Z,44.43
2023-04-03T13:04:05.167Z,44.71
2023-04-03T13:05:10.208Z,45.25
2023-04-03T13:06:19.601Z,46.03
2023-04-03T13:07:23.927Z,45.52
2023-04-03T13:08:27.034Z,45.63
2023-04-03T13:09:32.012Z,45.12
2023-04-03T13:10:46.176Z,45.80
2023-04-03T13:11:50.024Z,46.22
2023-04-03T13:12:55.019Z,45.81
2023-04-03T13:14:00.634Z,47.15
2023-04-03T13:15:14.242Z,47.12
2023-04-03T13:16:19.060Z,46.01
2023-04-03T13:17:51.135Z,45.58
2023-04-03T13:18:56.422Z,45.88
2023-04-03T13:20:12.341Z,45.98
2023-04-03T13:21:17.589Z,46.31
2023-04-03T13:22:30.851Z,46.50
2023-04-03T13:23:34.441Z,46.51
2023-04-03T13:24:40.750Z,47.23
2023-04-03T13:25:46.038Z,47.32
2023-04-03T13:26:47.897Z,47.97
2023-04-03T13:27:53.909Z,47.56
2023-04-03T13:29:04.047Z,45.66
2023-04-03T13:30:07.637Z,45.14
2023-04-03T13:31:18.897Z,45.74
2023-04-03T13:32:24.846Z,45.24
2023-04-03T13:33:32.443Z,45.58
2023-04-03T13:34:38.155Z,44.63
2023-04-03T13:35:44.014Z,45.17
2023-04-03T13:36:48.408Z,45.16
2023-04-03T13:37:55.354Z,44.74
2023-04-03T13:39:08.068Z,46.06
2023-04-03T13:40:12.810Z,46.00
2023-04-03T13:41:28.420Z,46.03
2023-04-03T13:42:34.696Z,45.59
2023-04-03T13:43:37.968Z,46.29
2023-04-03T13:44:41.591Z,46.43
2023-04-03T13:45:56.104Z,45.39
2023-04-03T13:47:01.544Z,45.88
2023-04-03T13:48:23.157Z,47.06
2023-04-03T13:49:34.397Z,46.38
2023-04-03T13:50:52.046Z,47.19
2023-04-03T13:52:06.648Z,47.81
2023-04-03T13:53:14.382Z,47.08
2023-04-03T13:54:23.200Z,47.25
2023-04-03T13:55:27.924Z,47.94
2023-04-03T13:56:34.622Z,47.20
2023-04-03T13:57:36.511Z,47.89
2023-04-03T13:58:39.956Z,47.53
2023-04-03T13:59:44.041Z,47.40
2023-04-03T14:00:51.407Z,47.48
2023-04-03T14:01:56.733Z,47.59
2023-04-03T14:02:59.838Z,48.44
2023-04-03T14:04:13.700Z,48.67
2023-04-03T14:05:22.100Z,47.54
2023-04-03T14:06:24.615Z,47.13
2023-04-03T14:07:28.486Z,47.63
2023-04-03T14:08:42.438Z,47.67
2023-04-03T14:09:48.824Z,47.72
2023-04-03T14:10:51.955Z,47.80
2023-04-03T14:11:58.015Z,47.74